»·PEaware :: SWA6828 KSNA-KPHX

SWA6828 :: KSNA-KPHX

FLIGHT INFORMATION

Flight Status: Arrived
Operator:
Southwest Airlines
More flights by this operator :: More flights under this callsign
Pilot: Merv A. (1555)
Aircraft: BOEING 737-700
(B737)
More flights by this aircraft type
Origin: KSNA John Wayne-Orange Co
United States
Destination: KPHX Phoenix Sky Harbor Intl
United States
More flights between these airports :: More routes between these airports
Route: +PIGGN2 CNERY BLH HYDRR1
File this flight plan on PilotEdge
Remarks:
Altitude:
(Current/Filed)
33,000ft
Speed:
(Current/Filed)
450kts
Departed: 23-Sep-18 05:33 PM
Arrived: 23-Sep-18 06:25 PM
Distance/Time
Traveled:
294nm/0:52
Distance/Time
To Go:
Arrived

Flight Plot

Page will automatically refresh every two minutes.

Flight plan parsing failed; only flown route is shown


Map Options




Map Legend


Flown Route
Filed Route
Departure Airport
Arrival Airport
Navaid (VOR, NDB)
Fix

Horizontal Profiles

Position Reports

Time Latitude Longitude Heading Altitude Ground
Speed
23-Sep-18 16:56 33.676066 -117.864386 118 63ft 0kts
23-Sep-18 16:57 33.676066 -117.864386 118 63ft 0kts
23-Sep-18 16:58 33.676066 -117.864386 118 63ft 0kts
23-Sep-18 16:59 33.676066 -117.864386 118 63ft 0kts
23-Sep-18 17:00 33.676066 -117.864386 118 63ft 0kts
23-Sep-18 17:01 33.676066 -117.864386 118 63ft 0kts
23-Sep-18 17:02 33.676066 -117.864386 118 63ft 0kts
23-Sep-18 17:03 33.676066 -117.864386 118 63ft 0kts
23-Sep-18 17:04 33.676066 -117.864386 118 63ft 0kts
23-Sep-18 17:05 33.676066 -117.864386 118 63ft 0kts
23-Sep-18 17:06 33.676066 -117.864386 118 63ft 0kts
23-Sep-18 17:07 33.676066 -117.864386 118 63ft 0kts
23-Sep-18 17:08 33.676066 -117.864386 118 63ft 0kts
23-Sep-18 17:09 33.676066 -117.864386 118 63ft 0kts
23-Sep-18 17:10 33.676066 -117.864386 118 63ft 0kts
23-Sep-18 17:11 33.676066 -117.864386 118 63ft 0kts
23-Sep-18 17:12 33.676066 -117.864386 118 63ft 0kts
23-Sep-18 17:13 33.676066 -117.864386 118 63ft 0kts
23-Sep-18 17:14 33.676066 -117.864386 118 63ft 0kts
23-Sep-18 17:15 33.676066 -117.864386 118 63ft 0kts
23-Sep-18 17:16 33.676066 -117.864386 118 63ft 0kts
23-Sep-18 17:17 33.676066 -117.864386 118 63ft 0kts
23-Sep-18 17:18 33.676066 -117.864386 118 63ft 0kts
23-Sep-18 17:19 33.676066 -117.864386 118 63ft 0kts
23-Sep-18 17:20 33.676066 -117.864386 118 63ft 0kts
23-Sep-18 17:21 33.676066 -117.864386 118 63ft 0kts
23-Sep-18 17:22 33.676066 -117.864386 118 63ft 0kts
23-Sep-18 17:23 33.676066 -117.864386 118 63ft 0kts
23-Sep-18 17:24 33.676066 -117.864386 118 63ft 0kts
23-Sep-18 17:25 33.676066 -117.864386 118 63ft 0kts
23-Sep-18 17:26 33.676239 -117.865023 75 63ft 2kts
23-Sep-18 17:27 33.676031 -117.865263 27 63ft 0kts
23-Sep-18 17:28 33.676031 -117.865263 27 63ft 0kts
23-Sep-18 17:29 33.676032 -117.865262 27 63ft 0kts
23-Sep-18 17:30 33.677076 -117.864617 27 63ft 8kts
23-Sep-18 17:31 33.679397 -117.863140 27 63ft 11kts
23-Sep-18 17:32 33.680652 -117.863160 298 63ft 0kts
23-Sep-18 17:33 33.680782 -117.863442 298 63ft 4kts
23-Sep-18 17:34 33.681347 -117.865288 215 63ft 5kts
23-Sep-18 17:35 33.672780 -117.870683 208 64ft 136kts
23-Sep-18 17:36 33.633343 -117.890433 191 2574ft 176kts
23-Sep-18 17:37 33.571285 -117.895720 168 4265ft 267kts
23-Sep-18 17:38 33.506267 -117.849797 125 6955ft 284kts
23-Sep-18 17:39 33.477315 -117.762421 92 7153ft 289kts
23-Sep-18 17:40 33.494410 -117.668044 62 10756ft 301kts
23-Sep-18 17:41 33.541210 -117.571903 60 12631ft 364kts
23-Sep-18 17:42 33.571171 -117.457348 101 14066ft 375kts
23-Sep-18 17:43 33.537289 -117.335746 112 16607ft 396kts
23-Sep-18 17:44 33.504650 -117.206483 97 18933ft 417kts
23-Sep-18 17:45 33.501407 -117.065103 92 21112ft 434kts
23-Sep-18 17:46 33.498400 -116.917464 93 23017ft 450kts
23-Sep-18 17:47 33.496643 -116.765310 92 24717ft 463kts
23-Sep-18 17:48 33.494796 -116.608863 92 26316ft 475kts
23-Sep-18 17:49 33.492512 -116.448728 93 27740ft 486kts
23-Sep-18 17:50 33.490348 -116.287391 93 29537ft 485kts
23-Sep-18 17:51 33.487656 -116.126552 93 31354ft 483kts
23-Sep-18 17:52 33.504875 -115.966157 72 32675ft 493kts
23-Sep-18 17:53 33.550948 -115.812422 71 32693ft 490kts
23-Sep-18 17:54 33.595987 -115.657608 71 32700ft 490kts
23-Sep-18 17:55 33.617161 -115.497671 93 32692ft 485kts
23-Sep-18 17:56 33.611907 -115.336673 94 32699ft 485kts
23-Sep-18 17:57 33.607302 -115.175182 94 32707ft 485kts
23-Sep-18 17:58 33.603435 -115.013242 94 32717ft 486kts
23-Sep-18 17:59 33.598748 -114.851284 94 32717ft 486kts
23-Sep-18 18:00 33.583249 -114.691598 107 32229ft 476kts
23-Sep-18 18:01 33.552245 -114.536217 106 29544ft 475kts
23-Sep-18 18:02 33.522672 -114.384352 106 27304ft 462kts
23-Sep-18 18:03 33.493518 -114.236368 106 25086ft 451kts
23-Sep-18 18:04 33.464910 -114.092801 105 22962ft 440kts
23-Sep-18 18:05 33.437877 -113.957968 106 22733ft 384kts
23-Sep-18 18:06 33.414692 -113.842900 106 22667ft 330kts
23-Sep-18 18:07 33.392437 -113.731271 105 19942ft 367kts
23-Sep-18 18:08 33.367063 -113.606503 105 18923ft 396kts
23-Sep-18 18:09 33.341005 -113.479177 105 18641ft 391kts
23-Sep-18 18:10 33.318899 -113.354611 103 17076ft 377kts
23-Sep-18 18:11 33.297943 -113.233504 103 16268ft 370kts
23-Sep-18 18:12 33.283634 -113.134715 101 15501ft 355kts
23-Sep-18 18:13 33.275495 -113.000127 88 14107ft 345kts
23-Sep-18 18:14 33.278403 -112.906679 89 12919ft 330kts
23-Sep-18 18:15 33.293216 -112.786085 67 11445ft 304kts
23-Sep-18 18:16 33.322534 -112.709223 66 10264ft 303kts
23-Sep-18 18:17 33.356726 -112.619737 66 9256ft 282kts
23-Sep-18 18:18 33.387748 -112.538234 66 8391ft 256kts
23-Sep-18 18:19 33.415873 -112.461313 68 7471ft 251kts
23-Sep-18 18:20 33.429115 -112.386000 92 6865ft 218kts
23-Sep-18 18:21 33.429030 -112.315355 92 5764ft 209kts
23-Sep-18 18:22 33.428986 -112.246141 92 4654ft 203kts
23-Sep-18 18:23 33.428941 -112.180819 92 3618ft 196kts
23-Sep-18 18:24 33.428910 -112.117500 92 2593ft 175kts
23-Sep-18 18:25 33.428878 -112.064416 92 1758ft 150kts
23-Sep-18 18:26 33.428793 -112.015890 88 1143ft 110kts
23-Sep-18 18:27 33.429568 -112.004773 43 1142ft 4kts
23-Sep-18 18:28 33.429654 -112.004661 50 1142ft 0kts
23-Sep-18 18:29 33.429655 -112.004659 50 1142ft 0kts
23-Sep-18 18:30 33.430152 -112.003285 16 1142ft 8kts
23-Sep-18 18:31 33.431738 -112.003305 355 1142ft 7kts
23-Sep-18 18:32 33.432836 -112.001868 90 1142ft 11kts
23-Sep-18 18:33 33.432838 -111.998169 89 1142ft 11kts
23-Sep-18 18:34 33.433444 -111.995769 324 1142ft 4kts
23-Sep-18 18:35 33.433646 -111.996056 304 1142ft 0kts
23-Sep-18 18:36 33.433646 -111.996056 304 1142ft 0kts
23-Sep-18 18:37 33.433646 -111.996056 304 1142ft 0kts
23-Sep-18 18:38 33.433646 -111.996056 304 1142ft 0kts

Navigation Log

Ident Type
Flight plan parsing failed, navigation log unavailable